Time;durP1;ratioP1;P1;durP2;ratioP2;P2;SDS_P1;SDS_P2;PMS_P1;PMS_P2;Temp;Humidity;BMP_temperature;BMP_pressure;BME280_temperature;BME280_humidity;BME280_pressure;Samples;Min_cycle;Max_cycle;Signal;HPM_P1;HPM_P2
2022/06/08 00:02:22;;;;;;;4.32;2.17;;;;;;;-142.64;100.00;58178.75;5075859;28;20112;-58
2022/06/08 00:04:48;;;;;;;6.53;2.05;;;;;;;-142.64;100.00;58178.75;5074380;28;20037;-60
2022/06/08 00:07:13;;;;;;;3.17;2.00;;;;;;;-142.64;100.00;58178.75;5074432;28;20054;-58
2022/06/08 00:09:39;;;;;;;4.13;1.83;;;;;;;-142.64;100.00;58178.75;5075642;28;20479;-59
2022/06/08 00:12:05;;;;;;;6.78;2.28;;;;;;;-142.64;100.00;58178.75;5075654;28;20032;-60
2022/06/08 00:14:31;;;;;;;4.45;2.38;;;;;;;-142.64;100.00;58178.75;5075316;28;20044;-62
2022/06/08 00:16:56;;;;;;;4.55;2.08;;;;;;;-142.64;100.00;58178.75;5074058;28;20033;-60
2022/06/08 00:19:21;;;;;;;4.32;2.45;;;;;;;-142.64;100.00;58178.75;5075627;28;20082;-59
2022/06/08 00:21:46;;;;;;;7.10;2.70;;;;;;;-142.64;100.00;58178.75;5075476;28;20028;-58
2022/06/08 00:24:12;;;;;;;5.00;2.80;;;;;;;-142.64;100.00;58178.75;5073850;28;20391;-61
2022/06/08 00:26:38;;;;;;;8.50;3.45;;;;;;;-142.64;100.00;58178.75;5075134;28;20469;-60
2022/06/08 00:29:04;;;;;;;7.30;4.10;;;;;;;-142.64;100.00;58178.75;5074967;28;20040;-58
2022/06/08 00:31:30;;;;;;;6.88;3.92;;;;;;;-142.64;100.00;58178.75;5074053;28;20037;-57
2022/06/08 00:33:55;;;;;;;9.48;4.18;;;;;;;-142.64;100.00;58178.75;5074956;28;20020;-58
2022/06/08 00:36:20;;;;;;;8.32;4.65;;;;;;;-142.64;100.00;58178.75;5074818;28;20086;-57
2022/06/08 00:38:46;;;;;;;7.35;4.72;;;;;;;-142.64;100.00;58178.75;5074941;28;20029;-60
2022/06/08 00:41:46;;;;;;;9.95;4.45;;;;;;;-142.64;100.00;58178.75;5073688;28;20063;-59
2022/06/08 00:44:45;;;;;;;6.07;3.70;;;;;;;-142.64;100.00;58178.75;5062420;28;20048;-59
2022/06/08 00:47:14;;;;;;;10.25;4.88;;;;;;;-142.64;100.00;58178.75;5065757;28;20049;-61
2022/06/08 00:49:48;;;;;;;9.93;5.35;;;;;;;-142.64;100.00;58178.75;5074852;28;20078;-61
2022/06/08 00:52:14;;;;;;;8.73;6.15;;;;;;;-142.64;100.00;58178.75;5074605;28;20476;-57
2022/06/08 00:54:42;;;;;;;10.55;5.90;;;;;;;-142.64;100.00;58178.75;5073425;28;20128;-61
2022/06/08 00:57:31;;;;;;;9.73;6.82;;;;;;;-142.64;100.00;58178.75;5074697;28;20037;-60
2022/06/08 01:00:07;;;;;;;12.48;7.55;;;;;;;-142.64;100.00;58178.75;5073539;28;20062;-60
2022/06/08 01:02:32;;;;;;;11.95;8.40;;;;;;;-142.64;100.00;58178.75;5074518;28;20116;-59
2022/06/08 01:05:46;;;;;;;10.98;8.43;;;;;;;-142.64;100.00;58178.75;5056588;28;20057;-61
2022/06/08 01:08:31;;;;;;;14.40;9.15;;;;;;;-142.64;100.00;58178.75;5069225;28;20102;-62
2022/06/08 01:10:59;;;;;;;14.43;9.05;;;;;;;-142.64;100.00;58178.75;5074444;28;20044;-60
2022/06/08 01:13:28;;;;;;;18.02;9.95;;;;;;;-142.64;100.00;58178.75;5073239;28;20024;-59
2022/06/08 01:15:53;;;;;;;13.10;10.20;;;;;;;-142.64;100.00;58178.75;5074283;28;20391;-61
2022/06/08 01:18:19;;;;;;;15.25;10.32;;;;;;;-142.64;100.00;58178.75;5073044;28;20107;-59
2022/06/08 01:20:50;;;;;;;19.50;10.77;;;;;;;-142.64;100.00;58178.75;5074265;28;20029;-59
2022/06/08 01:23:16;;;;;;;14.30;11.55;;;;;;;-142.64;100.00;58178.75;5073041;28;20032;-59
2022/06/08 01:26:34;;;;;;;17.02;11.93;;;;;;;-142.64;100.00;58178.75;5074248;28;20036;-59
2022/06/08 01:29:12;;;;;;;15.68;11.23;;;;;;;-142.64;100.00;58178.75;5067031;28;20458;-62
2022/06/08 01:31:45;;;;;;;18.90;12.55;;;;;;;-142.64;100.00;58178.75;5072896;28;20383;-60
2022/06/08 01:34:26;;;;;;;18.88;12.77;;;;;;;-142.64;100.00;58178.75;5074066;28;20032;-59
2022/06/08 01:37:09;;;;;;;17.10;12.82;;;;;;;-142.64;100.00;58178.75;5073041;28;20098;-60
2022/06/08 01:40:13;;;;;;;16.48;12.30;;;;;;;-142.64;100.00;58178.75;5056099;28;20497;-60
2022/06/08 01:42:48;;;;;;;16.00;12.93;;;;;;;-142.64;100.00;58178.75;5064716;28;20048;-59
2022/06/08 01:45:33;;;;;;;16.80;12.40;;;;;;;-142.64;100.00;58178.75;5073801;28;20093;-61
2022/06/08 01:48:13;;;;;;;16.65;11.75;;;;;;;-142.64;100.00;58178.75;5073852;28;20111;-61
2022/06/08 01:51:14;;;;;;;14.68;12.30;;;;;;;-142.64;100.00;58178.75;5072847;28;20391;-60
2022/06/08 01:53:48;;;;;;;14.73;11.07;;;;;;;-142.64;100.00;58178.75;5073666;28;20051;-61
2022/06/08 01:56:19;;;;;;;16.17;11.43;;;;;;;-142.64;100.00;58178.75;5073651;28;20031;-60
2022/06/08 01:58:59;;;;;;;13.60;11.77;;;;;;;-142.64;100.00;58178.75;5073138;28;20025;-60
2022/06/08 02:01:31;;;;;;;13.00;10.95;;;;;;;-142.64;100.00;58178.75;5072602;28;20029;-60
2022/06/08 02:04:18;;;;;;;13.55;10.32;;;;;;;-142.64;100.00;58178.75;5073706;28;20028;-62
2022/06/08 02:07:08;;;;;;;14.45;10.43;;;;;;;-142.64;100.00;58178.75;5073203;28;20135;-61
2022/06/08 02:09:40;;;;;;;12.40;10.13;;;;;;;-142.64;100.00;58178.75;5072256;28;20032;-58
2022/06/08 02:12:08;;;;;;;13.32;10.13;;;;;;;-142.64;100.00;58178.75;5072010;28;20043;-59
2022/06/08 02:14:47;;;;;;;13.40;9.73;;;;;;;-142.64;100.00;58178.75;5072160;28;20539;-59
2022/06/08 02:17:29;;;;;;;13.05;9.73;;;;;;;-142.64;100.00;58178.75;5071936;28;20057;-58
2022/06/08 02:20:01;;;;;;;13.30;10.35;;;;;;;-142.64;100.00;58178.75;5071778;28;20086;-59
2022/06/08 02:22:29;;;;;;;14.02;9.85;;;;;;;-142.64;100.00;58178.75;5073242;28;20035;-59
2022/06/08 02:25:01;;;;;;;13.95;9.57;;;;;;;-142.64;100.00;58178.75;5071788;28;20037;-59
2022/06/08 02:27:36;;;;;;;10.55;8.43;;;;;;;-142.64;100.00;58178.75;5073092;28;20034;-60
2022/06/08 02:30:13;;;;;;;11.20;8.88;;;;;;;-142.64;100.00;58178.75;5071735;28;20024;-58
2022/06/08 02:35:35;;;;;;;10.15;8.18;;;;;;;-142.64;100.00;58178.75;5072015;28;20140;-59
2022/06/08 02:38:09;;;;;;;10.60;7.68;;;;;;;-142.64;100.00;58178.75;5072822;28;20037;-59
2022/06/08 02:40:36;;;;;;;11.15;8.48;;;;;;;-142.64;100.00;58178.75;5071869;28;20028;-60
2022/06/08 02:43:06;;;;;;;9.65;7.65;;;;;;;-142.64;100.00;58178.75;5071644;28;20036;-60
2022/06/08 02:45:37;;;;;;;11.48;7.40;;;;;;;-142.64;100.00;58178.75;5072732;28;20028;-61
2022/06/08 02:48:06;;;;;;;8.45;7.22;;;;;;;-142.64;100.00;58178.75;5071596;28;20051;-58
2022/06/08 02:50:32;;;;;;;8.32;7.15;;;;;;;-142.64;100.00;58178.75;5072499;28;20036;-62
2022/06/08 02:53:33;;;;;;;8.25;7.10;;;;;;;-142.64;100.00;58178.75;5054537;28;20036;-61
2022/06/08 02:56:30;;;;;;;7.90;6.22;;;;;;;-142.64;100.00;58178.75;5072416;28;20036;-60
2022/06/08 02:59:13;;;;;;;9.13;6.35;;;;;;;-142.64;100.00;58178.75;5072514;28;20033;-59
2022/06/08 03:01:44;;;;;;;6.38;5.78;;;;;;;-142.64;100.00;58178.75;5072778;28;20068;-60
2022/06/08 03:04:24;;;;;;;;;;;;;;;-142.64;100.00;58178.75;5071847;28;20127;-60
2022/06/08 03:06:54;;;;;;;9.18;5.80;;;;;;;-142.64;100.00;58178.75;5071193;28;19916;-61
2022/06/08 03:09:21;;;;;;;8.20;5.40;;;;;;;-142.64;100.00;58178.75;5070854;28;20033;-60
2022/06/08 03:11:51;;;;;;;6.50;5.05;;;;;;;-142.64;100.00;58178.75;5070906;28;20028;-59
2022/06/08 03:14:17;;;;;;;5.30;4.40;;;;;;;-142.64;100.00;58178.75;5070971;28;20373;-59
2022/06/08 03:17:02;;;;;;;5.53;4.70;;;;;;;-142.64;100.00;58178.75;5071206;28;20127;-61
2022/06/08 03:19:29;;;;;;;6.35;4.15;;;;;;;-142.64;100.00;58178.75;5072268;28;20068;-60
2022/06/08 03:21:55;;;;;;;7.45;4.80;;;;;;;-142.64;100.00;58178.75;5071072;28;20032;-61
2022/06/08 03:24:21;;;;;;;7.32;4.80;;;;;;;-142.64;100.00;58178.75;5072300;28;20059;-58
2022/06/08 03:26:51;;;;;;;4.65;4.20;;;;;;;-142.64;100.00;58178.75;5071942;28;20116;-59
2022/06/08 03:29:17;;;;;;;6.72;4.38;;;;;;;-142.64;100.00;58178.75;5071068;28;20428;-60
2022/06/08 03:31:42;;;;;;;5.40;4.00;;;;;;;-142.64;100.00;58178.75;5072242;28;20115;-60
2022/06/08 03:34:07;;;;;;;7.85;4.05;;;;;;;-142.64;100.00;58178.75;5072510;28;20395;-59
2022/06/08 03:36:33;;;;;;;5.32;3.58;;;;;;;-142.64;100.00;58178.75;5070887;28;20033;-63
2022/06/08 03:38:59;;;;;;;5.70;4.00;;;;;;;-142.64;100.00;58178.75;5072388;28;20033;-59
2022/06/08 03:41:24;;;;;;;6.30;3.85;;;;;;;-142.64;100.00;58178.75;5072109;28;20028;-59
2022/06/08 03:43:49;;;;;;;6.95;4.13;;;;;;;-142.64;100.00;58178.75;5071029;28;20036;-60
2022/06/08 03:46:15;;;;;;;6.95;3.80;;;;;;;-142.64;100.00;58178.75;5072002;28;20174;-59
2022/06/08 03:48:44;;;;;;;4.68;3.33;;;;;;;-142.64;100.00;58178.75;5071958;28;20032;-60
2022/06/08 03:51:10;;;;;;;3.97;2.80;;;;;;;-142.64;100.00;58178.75;5070599;28;20545;-59
2022/06/08 03:53:56;;;;;;;3.20;2.90;;;;;;;-142.64;100.00;58178.75;5070979;28;20020;-59
2022/06/08 03:56:23;;;;;;;3.53;2.78;;;;;;;-142.64;100.00;58178.75;5070713;28;20494;-61
2022/06/08 03:58:49;;;;;;;3.47;2.90;;;;;;;-142.64;100.00;58178.75;5070839;28;20029;-60
2022/06/08 04:01:14;;;;;;;4.38;2.88;;;;;;;-142.64;100.00;58178.75;5070688;28;20039;-61
2022/06/08 04:03:40;;;;;;;6.35;3.45;;;;;;;-142.64;100.00;58178.75;5071775;28;20391;-60
2022/06/08 04:06:05;;;;;;;4.35;2.97;;;;;;;-142.64;100.00;58178.75;5071747;28;20044;-58
2022/06/08 04:08:31;;;;;;;3.83;3.03;;;;;;;-142.64;100.00;58178.75;5071579;28;20048;-61
2022/06/08 04:10:57;;;;;;;3.50;2.90;;;;;;;-142.64;100.00;58178.75;5072000;28;20447;-61
2022/06/08 04:13:23;;;;;;;3.88;2.72;;;;;;;-142.64;100.00;58178.75;5071893;28;20040;-60
2022/06/08 04:15:49;;;;;;;5.40;3.10;;;;;;;-142.64;100.00;58178.75;5070825;28;20407;-58
2022/06/08 04:18:16;;;;;;;3.25;2.95;;;;;;;-142.64;100.00;58178.75;5070412;28;20033;-58
2022/06/08 04:20:45;;;;;;;4.78;2.97;;;;;;;-142.64;100.00;58178.75;5072077;28;20449;-61
2022/06/08 04:23:10;;;;;;;3.33;2.60;;;;;;;-142.64;100.00;58178.75;5075289;28;20107;-59
2022/06/08 04:25:38;;;;;;;3.35;2.45;;;;;;;-142.64;100.00;58178.75;5074224;28;20129;-59
2022/06/08 04:28:04;;;;;;;3.92;3.08;;;;;;;-142.64;100.00;58178.75;5074131;28;20033;-60
2022/06/08 04:30:31;;;;;;;3.92;3.00;;;;;;;-142.64;100.00;58178.75;5075391;28;20276;-61
2022/06/08 04:32:56;;;;;;;4.78;3.28;;;;;;;-142.64;100.00;58178.75;5075203;28;20119;-59
2022/06/08 04:35:23;;;;;;;3.92;2.30;;;;;;;-142.64;100.00;58178.75;5075016;28;20510;-59
2022/06/08 04:37:48;;;;;;;4.03;2.55;;;;;;;-142.64;100.00;58178.75;5074144;28;20081;-60
2022/06/08 04:40:14;;;;;;;7.22;2.55;;;;;;;-142.64;100.00;58178.75;5073850;28;20028;-58
2022/06/08 04:42:40;;;;;;;3.80;2.53;;;;;;;-142.64;100.00;58178.75;5075042;28;20098;-59
2022/06/08 04:45:06;;;;;;;5.75;2.88;;;;;;;-142.64;100.00;58178.75;5073660;28;20036;-62
2022/06/08 04:47:32;;;;;;;4.47;2.42;;;;;;;-142.64;100.00;58178.75;5074881;28;20024;-60
2022/06/08 04:49:57;;;;;;;3.60;2.25;;;;;;;-142.64;100.00;58178.75;5075063;28;20483;-59
2022/06/08 04:52:23;;;;;;;3.75;2.47;;;;;;;-142.64;100.00;58178.75;5073777;28;20463;-60
2022/06/08 04:54:48;;;;;;;2.65;2.40;;;;;;;-142.64;100.00;58178.75;5075060;28;20510;-60
2022/06/08 04:57:14;;;;;;;3.05;2.53;;;;;;;-142.64;100.00;58178.75;5073347;28;20459;-60
2022/06/08 04:59:40;;;;;;;3.42;2.80;;;;;;;-142.64;100.00;58178.75;5073589;28;20028;-60
2022/06/08 05:02:06;;;;;;;3.58;2.47;;;;;;;-142.64;100.00;58178.75;5074538;28;20396;-61
2022/06/08 05:04:32;;;;;;;4.60;3.45;;;;;;;-142.64;100.00;58178.75;5073467;28;20032;-61
2022/06/08 05:06:58;;;;;;;3.78;3.17;;;;;;;-142.64;100.00;58178.75;5074442;28;20063;-59
2022/06/08 05:09:23;;;;;;;7.35;3.28;;;;;;;-142.64;100.00;58178.75;5074685;28;20064;-59
2022/06/08 05:11:49;;;;;;;3.88;2.95;;;;;;;-142.64;100.00;58178.75;5074400;28;20067;-57
2022/06/08 05:14:14;;;;;;;4.47;2.80;;;;;;;-142.64;100.00;58178.75;5074405;28;20028;-59
2022/06/08 05:16:39;;;;;;;5.07;3.50;;;;;;;-142.64;100.00;58178.75;5074097;28;20086;-60
2022/06/08 05:19:05;;;;;;;5.07;3.35;;;;;;;-142.64;100.00;58178.75;5074230;28;20055;-62
2022/06/08 05:21:30;;;;;;;4.65;3.38;;;;;;;-142.64;100.00;58178.75;5073330;28;20045;-59
2022/06/08 05:23:55;;;;;;;4.50;3.50;;;;;;;-142.64;100.00;58178.75;5071144;28;20033;-60
2022/06/08 05:26:21;;;;;;;4.65;3.75;;;;;;;-142.64;100.00;58178.75;5071834;28;20487;-63
2022/06/08 05:28:46;;;;;;;5.53;4.03;;;;;;;-142.64;100.00;58178.75;5074291;28;20037;-61
2022/06/08 05:31:12;;;;;;;5.10;4.55;;;;;;;-142.64;100.00;58178.75;5073975;28;20033;-59
2022/06/08 05:33:38;;;;;;;4.95;4.38;;;;;;;-142.64;100.00;58178.75;5073401;28;20510;-60
2022/06/08 05:36:04;;;;;;;6.55;4.30;;;;;;;-142.64;100.00;58178.75;5073002;28;20024;-60
2022/06/08 05:38:29;;;;;;;5.68;3.70;;;;;;;-142.64;100.00;58178.75;5072743;28;20031;-60
2022/06/08 05:40:54;;;;;;;7.13;4.38;;;;;;;-142.64;100.00;58178.75;5073982;28;20028;-61
2022/06/08 05:43:20;;;;;;;4.28;3.88;;;;;;;-142.64;100.00;58178.75;5073908;28;20487;-59
2022/06/08 05:45:46;;;;;;;5.35;4.63;;;;;;;-142.64;100.00;58178.75;5072493;28;20029;-59
2022/06/08 05:48:12;;;;;;;6.30;4.05;;;;;;;-142.64;100.00;58178.75;5074032;28;20360;-61
2022/06/08 05:50:38;;;;;;;4.97;4.18;;;;;;;-142.64;100.00;58178.75;5073778;28;20078;-60
2022/06/08 05:53:04;;;;;;;6.55;4.20;;;;;;;-142.64;100.00;58178.75;5073563;28;20123;-60
2022/06/08 05:55:29;;;;;;;5.68;4.45;;;;;;;-142.64;100.00;58178.75;5072325;28;20527;-60
2022/06/08 05:57:54;;;;;;;6.22;3.92;;;;;;;-142.64;100.00;58178.75;5072346;28;20063;-61
2022/06/08 06:00:23;;;;;;;6.07;3.88;;;;;;;-142.64;100.00;58178.75;5073389;28;20183;-60
2022/06/08 06:02:49;;;;;;;5.43;4.00;;;;;;;-142.64;100.00;58178.75;5073818;28;20025;-58
2022/06/08 06:05:16;;;;;;;5.75;3.90;;;;;;;-142.64;100.00;58178.75;5071694;28;20028;-60
2022/06/08 06:07:42;;;;;;;4.38;3.60;;;;;;;-142.64;100.00;58178.75;5073231;28;20475;-59
2022/06/08 06:10:09;;;;;;;6.60;3.90;;;;;;;-142.64;100.00;58178.75;5073313;28;20064;-58
2022/06/08 06:12:35;;;;;;;6.43;3.65;;;;;;;-142.64;100.00;58178.75;5072150;28;20057;-59
2022/06/08 06:15:03;;;;;;;4.38;3.38;;;;;;;-142.64;100.00;58178.75;5073179;28;20032;-60
2022/06/08 06:17:29;;;;;;;5.32;4.20;;;;;;;-142.64;100.00;58178.75;5072153;28;20036;-60
2022/06/08 06:19:55;;;;;;;4.32;3.70;;;;;;;-142.64;100.00;58178.75;5072905;28;20039;-60
2022/06/08 06:22:21;;;;;;;4.70;3.30;;;;;;;-142.64;100.00;58178.75;5072957;28;20423;-61
2022/06/08 06:24:46;;;;;;;4.00;3.13;;;;;;;-142.64;100.00;58178.75;5071331;28;20036;-61
2022/06/08 06:27:11;;;;;;;4.70;3.33;;;;;;;-142.64;100.00;58178.75;5071432;28;20036;-60
2022/06/08 06:29:37;;;;;;;4.55;3.00;;;;;;;-142.64;100.00;58178.75;5072672;28;20047;-61
2022/06/08 06:32:06;;;;;;;3.55;2.65;;;;;;;-142.64;100.00;58178.75;5072918;28;20040;-60
2022/06/08 06:34:32;;;;;;;13.82;2.90;;;;;;;-142.64;100.00;58178.75;5071709;28;20032;-60
2022/06/08 06:36:58;;;;;;;3.63;2.63;;;;;;;-142.64;100.00;58178.75;5072896;28;20039;-60
2022/06/08 06:39:26;;;;;;;6.65;3.00;;;;;;;-142.64;100.00;58178.75;5072925;28;20475;-61
2022/06/08 06:41:52;;;;;;;3.35;2.60;;;;;;;-142.64;100.00;58178.75;5072623;28;20043;-60
2022/06/08 06:44:17;;;;;;;4.30;2.95;;;;;;;-142.64;100.00;58178.75;5071481;28;20402;-60
2022/06/08 06:46:43;;;;;;;5.13;2.80;;;;;;;-142.64;100.00;58178.75;5071011;28;20059;-60
2022/06/08 06:49:08;;;;;;;3.45;2.53;;;;;;;-142.64;100.00;58178.75;5072478;28;20040;-61
2022/06/08 06:51:34;;;;;;;5.93;2.38;;;;;;;-142.64;100.00;58178.75;5071247;28;20033;-62
2022/06/08 06:54:00;;;;;;;3.75;2.45;;;;;;;-142.64;100.00;58178.75;5072486;28;20499;-60
2022/06/08 06:56:26;;;;;;;6.50;3.50;;;;;;;-142.64;100.00;58178.75;5072511;28;20068;-62
2022/06/08 06:58:52;;;;;;;8.23;3.28;;;;;;;-142.64;100.00;58178.75;5071030;28;20064;-62
2022/06/08 07:01:18;;;;;;;5.53;3.83;;;;;;;-142.64;100.00;58178.75;5072508;28;20032;-62
2022/06/08 07:03:44;;;;;;;6.28;4.05;;;;;;;-142.64;100.00;58178.75;5070881;28;20032;-59
2022/06/08 07:06:09;;;;;;;5.18;3.92;;;;;;;-142.64;100.00;58178.75;5071100;28;20039;-59
2022/06/08 07:08:35;;;;;;;6.10;4.22;;;;;;;-142.64;100.00;58178.75;5072925;28;20526;-60
2022/06/08 07:13:44;;;;;;;5.15;4.60;;;;;;;-142.64;100.00;58178.75;5072330;28;20181;-59
2022/06/08 07:16:09;;;;;;;5.90;5.28;;;;;;;-142.64;100.00;58178.75;5071786;28;20060;-58
2022/06/08 07:18:35;;;;;;;5.85;5.18;;;;;;;-142.64;100.00;58178.75;5070819;28;20033;-59
2022/06/08 07:21:02;;;;;;;5.65;4.63;;;;;;;-142.64;100.00;58178.75;5071960;28;20052;-60
2022/06/08 07:23:27;;;;;;;6.18;5.32;;;;;;;-142.64;100.00;58178.75;5071825;28;20032;-60
2022/06/08 07:25:52;;;;;;;9.02;5.07;;;;;;;-142.64;100.00;58178.75;5071765;28;20044;-62
2022/06/08 07:28:18;;;;;;;8.70;5.13;;;;;;;-142.64;100.00;58178.75;5072420;28;20040;-60
2022/06/08 07:30:43;;;;;;;8.05;5.32;;;;;;;-142.64;100.00;58178.75;5072143;28;20082;-60
2022/06/08 07:33:08;;;;;;;5.63;4.75;;;;;;;-142.64;100.00;58178.75;5070850;28;20032;-61
2022/06/08 07:35:34;;;;;;;5.40;4.45;;;;;;;-142.64;100.00;58178.75;5072790;28;20029;-61
2022/06/08 07:37:59;;;;;;;5.20;4.13;;;;;;;-142.64;100.00;58178.75;5072258;28;20454;-62
2022/06/08 07:40:24;;;;;;;5.78;3.88;;;;;;;-142.64;100.00;58178.75;5071782;28;20029;-62
2022/06/08 07:42:50;;;;;;;4.60;3.63;;;;;;;-142.64;100.00;58178.75;5072349;28;20536;-62
2022/06/08 07:45:15;;;;;;;3.97;3.53;;;;;;;-142.64;100.00;58178.75;5071181;28;20475;-62
2022/06/08 07:50:26;;;;;;;4.95;4.10;;;;;;;-142.64;100.00;58178.75;5071425;28;20047;-62
2022/06/08 07:52:52;;;;;;;7.28;4.60;;;;;;;-142.64;100.00;58178.75;5052844;28;20036;-63
2022/06/08 07:55:18;;;;;;;5.03;4.35;;;;;;;-142.64;100.00;58178.75;5070863;28;20502;-61
2022/06/08 07:57:47;;;;;;;5.82;5.22;;;;;;;-142.64;100.00;58178.75;5074546;28;20119;-61
2022/06/08 08:00:14;;;;;;;8.10;5.45;;;;;;;-142.64;100.00;58178.75;5074841;28;20539;-61
2022/06/08 08:02:40;;;;;;;4.75;4.35;;;;;;;-142.64;100.00;58178.75;5073718;28;20101;-60
2022/06/08 08:05:09;;;;;;;5.72;4.75;;;;;;;-142.64;100.00;58178.75;5073555;28;20052;-60
2022/06/08 08:07:36;;;;;;;5.28;4.70;;;;;;;-142.64;100.00;58178.75;5073405;28;20520;-60
2022/06/08 08:10:02;;;;;;;4.85;4.38;;;;;;;-142.64;100.00;58178.75;5073477;28;20079;-62
2022/06/08 08:12:29;;;;;;;6.00;4.57;;;;;;;-142.64;100.00;58178.75;5074899;28;20329;-61
2022/06/08 08:14:54;;;;;;;5.32;4.78;;;;;;;-142.64;100.00;58178.75;5057107;28;20544;-59
2022/06/08 08:17:19;;;;;;;7.22;4.60;;;;;;;-142.64;100.00;58178.75;5075081;28;20119;-61
2022/06/08 08:19:45;;;;;;;7.10;5.35;;;;;;;-142.64;100.00;58178.75;5074767;28;20048;-60
2022/06/08 08:22:10;;;;;;;7.75;5.10;;;;;;;-142.64;100.00;58178.75;5074591;28;20498;-61
2022/06/08 08:24:35;;;;;;;6.50;4.65;;;;;;;-142.64;100.00;58178.75;5074916;28;20063;-61
2022/06/08 08:27:01;;;;;;;8.13;5.00;;;;;;;-142.64;100.00;58178.75;5074473;28;20063;-60
2022/06/08 08:29:26;;;;;;;6.72;6.13;;;;;;;-142.64;100.00;58178.75;5074577;28;20028;-61
2022/06/08 08:31:52;;;;;;;6.60;5.60;;;;;;;-142.64;100.00;58178.75;5074912;28;20032;-61
2022/06/08 08:34:17;;;;;;;7.35;5.50;;;;;;;-142.64;100.00;58178.75;5075110;28;20028;-60
2022/06/08 08:36:42;;;;;;;9.18;5.28;;;;;;;-142.64;100.00;58178.75;5075091;28;20112;-60
2022/06/08 08:39:08;;;;;;;5.88;5.10;;;;;;;-142.64;100.00;58178.75;5075529;28;20128;-62
2022/06/08 08:44:39;;;;;;;5.60;4.47;;;;;;;-142.64;100.00;58178.75;5075029;28;20043;-63
2022/06/08 08:47:12;;;;;;;4.50;4.03;;;;;;;-142.64;100.00;58178.75;5073517;28;20028;-62
2022/06/08 08:49:42;;;;;;;7.00;4.82;;;;;;;-142.64;100.00;58178.75;5073991;28;20476;-61
2022/06/08 08:52:25;;;;;;;5.25;3.95;;;;;;;-142.64;100.00;58178.75;5073859;28;20033;-62
2022/06/08 08:54:57;;;;;;;4.40;4.05;;;;;;;-142.64;100.00;58178.75;5073567;28;20764;-61
2022/06/08 08:57:41;;;;;;;5.75;3.85;;;;;;;-142.64;100.00;58178.75;5073603;28;20111;-64
2022/06/08 09:00:52;;;;;;;5.40;4.90;;;;;;;-142.64;100.00;58178.75;5074831;28;20557;-62
2022/06/08 09:03:25;;;;;;;6.10;4.57;;;;;;;-142.64;100.00;58178.75;5069568;28;20072;-60
2022/06/08 09:05:53;;;;;;;6.18;4.70;;;;;;;-142.64;100.00;58178.75;5073575;28;20368;-60
2022/06/08 09:08:21;;;;;;;8.35;5.32;;;;;;;-142.64;100.00;58178.75;5071229;28;20091;-61
2022/06/08 09:10:47;;;;;;;6.55;5.45;;;;;;;-142.64;100.00;58178.75;5072313;28;20062;-59
2022/06/08 09:13:20;;;;;;;6.50;5.32;;;;;;;-142.64;100.00;58178.75;5073213;28;20032;-59
2022/06/08 09:15:56;;;;;;;5.93;4.47;;;;;;;-142.64;100.00;58178.75;5073428;28;20151;-60
2022/06/08 09:18:30;;;;;;;7.07;4.28;;;;;;;-142.64;100.00;58178.75;5073603;28;20028;-59
2022/06/08 09:20:57;;;;;;;4.07;3.67;;;;;;;-142.64;100.00;58178.75;5073648;28;20119;-60
2022/06/08 09:23:42;;;;;;;5.15;3.78;;;;;;;-142.64;100.00;58178.75;5072039;28;20025;-63
2022/06/08 09:26:13;;;;;;;9.00;3.65;;;;;;;-142.64;100.00;58178.75;5073285;28;20036;-60
2022/06/08 09:28:39;;;;;;;6.80;3.65;;;;;;;-142.64;100.00;58178.75;5073460;28;20024;-62
2022/06/08 09:31:08;;;;;;;5.55;3.80;;;;;;;-142.64;100.00;58178.75;5072313;28;20029;-63
2022/06/08 09:33:37;;;;;;;5.03;4.07;;;;;;;-142.64;100.00;58178.75;5072272;28;20070;-62
2022/06/08 09:36:25;;;;;;;6.80;4.18;;;;;;;-142.64;100.00;58178.75;5073344;28;20024;-61
2022/06/08 09:38:50;;;;;;;7.28;3.92;;;;;;;-142.64;100.00;58178.75;5073278;28;20189;-63
2022/06/08 09:41:30;;;;;;;4.50;3.95;;;;;;;-142.64;100.00;58178.75;5073046;28;20538;-62
2022/06/08 09:44:19;;;;;;;5.97;4.15;;;;;;;-142.64;100.00;58178.75;5055538;28;20032;-61
2022/06/08 09:52:56;;;;;;;6.38;4.10;;;;;;;-142.64;100.00;58178.75;5071915;28;20043;-62
2022/06/08 09:55:28;;;;;;;9.27;4.65;;;;;;;-142.64;100.00;58178.75;5072570;28;20082;-63
2022/06/08 09:58:27;;;;;;;5.90;4.18;;;;;;;-142.64;100.00;58178.75;5071421;28;20036;-62
2022/06/08 10:01:11;;;;;;;7.32;4.95;;;;;;;-142.64;100.00;58178.75;5073560;28;20040;-61
2022/06/08 10:03:37;;;;;;;7.38;3.90;;;;;;;-142.64;100.00;58178.75;5071706;28;20070;-60
2022/06/08 10:06:16;;;;;;;7.13;4.70;;;;;;;-142.64;100.00;58178.75;5073552;28;20040;-64
2022/06/08 10:08:58;;;;;;;5.70;4.10;;;;;;;-142.64;100.00;58178.75;5073433;28;20052;-63
2022/06/08 10:11:37;;;;;;;7.82;4.47;;;;;;;-142.64;100.00;58178.75;5073533;28;20467;-64
2022/06/08 10:14:09;;;;;;;8.68;4.20;;;;;;;-142.64;100.00;58178.75;5071595;28;20036;-62
2022/06/08 10:16:39;;;;;;;4.90;3.58;;;;;;;-142.64;100.00;58178.75;5072236;28;20033;-61
2022/06/08 10:19:11;;;;;;;6.23;3.23;;;;;;;-142.64;100.00;58178.75;5070973;28;20032;-61
2022/06/08 10:21:42;;;;;;;4.75;2.90;;;;;;;-142.64;100.00;58178.75;5054899;28;20074;-63
2022/06/08 10:24:34;;;;;;;6.18;2.70;;;;;;;-142.64;100.00;58178.75;5071803;28;20027;-65
2022/06/08 10:27:10;;;;;;;6.78;3.00;;;;;;;-142.64;100.00;58178.75;5072078;28;20066;-63
2022/06/08 10:29:41;;;;;;;6.00;2.03;;;;;;;-142.64;100.00;58178.75;5071368;28;20031;-61
2022/06/08 10:32:17;;;;;;;6.07;2.15;;;;;;;-142.64;100.00;58178.75;5071779;28;20028;-66
2022/06/08 10:34:43;;;;;;;3.83;1.80;;;;;;;-142.64;100.00;58178.75;5071442;28;20027;-63
2022/06/08 10:37:08;;;;;;;6.05;2.28;;;;;;;-142.64;100.00;58178.75;5071366;28;20040;-62
2022/06/08 10:39:35;;;;;;;5.95;2.28;;;;;;;-142.64;100.00;58178.75;5072833;28;20036;-63
2022/06/08 10:42:46;;;;;;;6.72;2.33;;;;;;;-142.64;100.00;58178.75;5072860;28;20463;-64
2022/06/08 10:45:31;;;;;;;5.15;1.90;;;;;;;-142.64;100.00;58178.75;5072296;28;20055;-64
2022/06/08 10:48:15;;;;;;;5.47;2.10;;;;;;;-142.64;100.00;58178.75;5071268;28;20068;-64
2022/06/08 10:50:44;;;;;;;4.20;2.20;;;;;;;-142.64;100.00;58178.75;5072602;28;20028;-65
2022/06/08 10:56:23;;;;;;;6.35;2.08;;;;;;;-142.64;100.00;58178.75;5072723;28;20051;-65
2022/06/08 10:59:03;;;;;;;6.20;2.28;;;;;;;-142.64;100.00;58178.75;5072437;28;20499;-63
2022/06/08 11:01:47;;;;;;;4.57;1.95;;;;;;;-142.64;100.00;58178.75;5072459;28;20078;-64
2022/06/08 11:04:27;;;;;;;7.18;2.22;;;;;;;-142.64;100.00;58178.75;5072392;28;20032;-63
2022/06/08 11:07:14;;;;;;;3.58;2.10;;;;;;;-142.64;100.00;58178.75;5070779;28;20048;-64
2022/06/08 11:09:45;;;;;;;5.45;1.98;;;;;;;-142.64;100.00;58178.75;5071181;28;20032;-63
2022/06/08 11:12:10;;;;;;;6.53;1.90;;;;;;;-142.64;100.00;58178.75;5071041;28;20162;-63
2022/06/08 11:14:47;;;;;;;4.07;2.40;;;;;;;-142.64;100.00;58178.75;5072386;28;20119;-63
2022/06/08 11:17:21;;;;;;;5.57;2.55;;;;;;;-142.64;100.00;58178.75;5072356;28;20488;-60
2022/06/08 11:19:47;;;;;;;5.65;2.50;;;;;;;-142.64;100.00;58178.75;5072458;28;20035;-61
2022/06/08 11:22:22;;;;;;;4.97;2.78;;;;;;;-142.64;100.00;58178.75;5062488;28;20044;-61
2022/06/08 11:24:54;;;;;;;6.07;3.45;;;;;;;-142.64;100.00;58178.75;5031659;28;20477;-63
2022/06/08 11:27:25;;;;;;;10.55;3.90;;;;;;;-142.64;100.00;58178.75;5030634;28;20112;-62
2022/06/08 11:29:51;;;;;;;10.07;3.50;;;;;;;-142.64;100.00;58178.75;5047747;28;20036;-63
2022/06/08 11:32:25;;;;;;;5.85;2.75;;;;;;;-142.64;100.00;58178.75;5046676;28;20033;-60
2022/06/08 11:35:08;;;;;;;6.07;3.40;;;;;;;-142.64;100.00;58178.75;5031926;28;20483;-62
2022/06/08 11:37:47;;;;;;;8.38;3.10;;;;;;;-142.64;100.00;58178.75;5030856;28;20063;-63
2022/06/08 11:40:39;;;;;;;4.95;2.47;;;;;;;-142.64;100.00;58178.75;5014789;28;20033;-63
2022/06/08 11:43:31;;;;;;;4.38;2.60;;;;;;;-142.64;100.00;58178.75;5030636;28;20081;-63
2022/06/08 11:45:58;;;;;;;6.35;2.53;;;;;;;-142.64;100.00;58178.75;5031971;28;20037;-63